createdAt,value
2023-01-30T00:00:06.337Z,88
2023-01-30T00:03:31.627Z,88
2023-01-30T00:06:56.957Z,88
2023-01-30T00:10:22.829Z,89
2023-01-30T00:13:47.479Z,89
2023-01-30T00:17:12.742Z,89
2023-01-30T00:20:38.073Z,89
2023-01-30T00:24:03.381Z,88
2023-01-30T00:27:28.650Z,88
2023-01-30T00:30:54.057Z,88
2023-01-30T00:34:19.190Z,88
2023-01-30T00:37:44.443Z,88
2023-01-30T00:41:09.723Z,88
2023-01-30T00:44:35.027Z,88
2023-01-30T00:48:00.282Z,88
2023-01-30T00:51:25.524Z,88
2023-01-30T00:54:50.823Z,88
2023-01-30T00:58:16.080Z,88
2023-01-30T01:01:41.429Z,89
2023-01-30T01:05:06.664Z,89
2023-01-30T01:08:31.976Z,89
2023-01-30T01:11:57.271Z,89
2023-01-30T01:15:22.563Z,89
2023-01-30T01:18:47.840Z,88
2023-01-30T01:22:13.128Z,88
2023-01-30T01:25:38.395Z,89
2023-01-30T01:29:03.674Z,88
2023-01-30T01:32:28.937Z,87
2023-01-30T01:35:54.181Z,87
2023-01-30T01:39:19.479Z,87
2023-01-30T01:42:44.728Z,87
2023-01-30T01:46:10.059Z,86
2023-01-30T01:49:35.341Z,86
2023-01-30T01:53:00.567Z,86
2023-01-30T01:56:25.809Z,85
2023-01-30T01:59:51.127Z,86
2023-01-30T02:03:16.382Z,86
2023-01-30T02:06:41.673Z,87
2023-01-30T02:10:06.977Z,87
2023-01-30T02:13:32.269Z,87
2023-01-30T02:16:57.517Z,87
2023-01-30T02:20:22.807Z,87
2023-01-30T02:23:48.071Z,87
2023-01-30T02:27:13.358Z,87
2023-01-30T02:30:38.784Z,86
2023-01-30T02:34:03.921Z,87
2023-01-30T02:37:29.220Z,88
2023-01-30T02:40:54.461Z,88
2023-01-30T02:44:19.755Z,88
2023-01-30T02:47:45.021Z,88
2023-01-30T02:51:10.321Z,88
2023-01-30T02:54:35.601Z,88
2023-01-30T02:58:00.897Z,89
2023-01-30T03:01:26.187Z,88
2023-01-30T03:04:51.463Z,89
2023-01-30T03:08:16.717Z,89
2023-01-30T03:11:42.016Z,89
2023-01-30T03:15:07.276Z,89
2023-01-30T03:18:32.545Z,90
2023-01-30T03:21:57.815Z,90
2023-01-30T03:25:23.124Z,90
2023-01-30T03:28:48.387Z,90
2023-01-30T03:32:13.680Z,90
2023-01-30T03:35:38.976Z,89
2023-01-30T03:39:04.232Z,90
2023-01-30T03:42:29.568Z,90
2023-01-30T03:45:54.933Z,90
2023-01-30T03:49:20.169Z,90
2023-01-30T03:52:45.474Z,92
2023-01-30T03:56:10.816Z,92
2023-01-30T03:59:36.048Z,91
2023-01-30T04:03:01.371Z,91
2023-01-30T04:06:26.664Z,90
2023-01-30T04:09:51.967Z,91
2023-01-30T04:13:17.258Z,90
2023-01-30T04:16:42.570Z,90
2023-01-30T04:20:07.885Z,90
2023-01-30T04:23:33.157Z,90
2023-01-30T04:26:58.358Z,90
2023-01-30T04:30:23.684Z,91
2023-01-30T04:33:48.925Z,92
2023-01-30T04:37:14.405Z,91
2023-01-30T04:40:39.669Z,92
2023-01-30T04:44:04.975Z,93
2023-01-30T04:47:30.221Z,92
2023-01-30T04:50:55.484Z,92
2023-01-30T04:54:20.751Z,93
2023-01-30T04:57:45.990Z,93
2023-01-30T05:01:13.181Z,93
2023-01-30T05:04:38.437Z,93
2023-01-30T05:08:03.689Z,94
2023-01-30T05:11:28.972Z,93
2023-01-30T05:14:54.202Z,93
2023-01-30T05:18:19.619Z,93
2023-01-30T05:21:44.863Z,93
2023-01-30T05:25:14.647Z,93
2023-01-30T05:28:39.919Z,92
2023-01-30T05:32:05.192Z,92
2023-01-30T05:35:30.489Z,92
2023-01-30T05:38:55.764Z,92
2023-01-30T05:42:21.033Z,91
2023-01-30T05:45:46.329Z,91
2023-01-30T05:49:11.617Z,90
2023-01-30T05:52:36.875Z,90
2023-01-30T05:56:02.217Z,90
2023-01-30T05:59:27.502Z,91
2023-01-30T06:02:52.825Z,91
2023-01-30T06:06:18.120Z,92
2023-01-30T06:09:43.398Z,95
2023-01-30T06:13:08.702Z,95
2023-01-30T06:16:34.113Z,93
2023-01-30T06:19:59.369Z,90
2023-01-30T06:23:24.683Z,90
2023-01-30T06:26:50.058Z,90
2023-01-30T06:30:15.370Z,90
2023-01-30T06:33:40.643Z,90
2023-01-30T06:37:05.937Z,90
2023-01-30T06:40:31.197Z,91
2023-01-30T06:43:56.487Z,91
2023-01-30T06:47:21.771Z,92
2023-01-30T06:50:47.073Z,92
2023-01-30T06:54:12.353Z,93
2023-01-30T06:57:37.632Z,93
2023-01-30T07:01:02.910Z,92
2023-01-30T07:04:28.790Z,92
2023-01-30T07:07:53.981Z,92
2023-01-30T07:11:19.323Z,92
2023-01-30T07:14:44.544Z,91
2023-01-30T07:18:09.851Z,91
2023-01-30T07:21:35.173Z,91
2023-01-30T07:25:00.475Z,92
2023-01-30T07:28:25.810Z,92
2023-01-30T07:31:51.149Z,91
2023-01-30T07:35:16.333Z,91
2023-01-30T07:38:41.656Z,91
2023-01-30T07:42:06.902Z,91
2023-01-30T07:45:32.236Z,91
2023-01-30T07:48:59.749Z,91
2023-01-30T07:52:22.780Z,91
2023-01-30T07:55:48.109Z,91
2023-01-30T07:59:13.342Z,91
2023-01-30T08:02:38.673Z,91
2023-01-30T08:06:03.990Z,92
2023-01-30T08:09:29.255Z,91
2023-01-30T08:12:54.560Z,91
2023-01-30T08:16:19.848Z,90
2023-01-30T08:19:45.172Z,90
2023-01-30T08:23:10.423Z,90
2023-01-30T08:26:35.859Z,90
2023-01-30T08:30:01.102Z,89
2023-01-30T08:33:26.408Z,89
2023-01-30T08:36:51.752Z,90
2023-01-30T08:40:17.279Z,89
2023-01-30T08:43:42.327Z,89
2023-01-30T08:47:07.692Z,90
2023-01-30T08:50:32.941Z,90
2023-01-30T08:53:58.221Z,89
2023-01-30T08:57:23.453Z,90
2023-01-30T09:00:48.871Z,89
2023-01-30T09:04:14.054Z,89
2023-01-30T09:07:39.286Z,89
2023-01-30T09:11:04.586Z,89
2023-01-30T09:14:29.832Z,88
2023-01-30T09:17:55.131Z,88
2023-01-30T09:21:20.391Z,88
2023-01-30T09:24:48.467Z,88
2023-01-30T09:28:13.746Z,88
2023-01-30T09:31:39.050Z,89
2023-01-30T09:35:04.231Z,89
2023-01-30T09:38:29.467Z,90
2023-01-30T09:41:54.722Z,89
2023-01-30T09:45:19.985Z,89
2023-01-30T09:48:45.243Z,89
2023-01-30T09:52:10.507Z,89
2023-01-30T09:55:35.782Z,90
2023-01-30T09:59:01.072Z,89
2023-01-30T10:02:26.337Z,88
2023-01-30T10:05:51.573Z,87
2023-01-30T10:09:16.834Z,88
2023-01-30T10:12:42.127Z,88
2023-01-30T10:16:07.396Z,87
2023-01-30T10:19:35.800Z,87
2023-01-30T10:22:57.848Z,86
2023-01-30T10:26:23.170Z,87
2023-01-30T10:29:48.355Z,86
2023-01-30T10:33:13.609Z,86
2023-01-30T10:36:38.838Z,84
2023-01-30T10:40:04.095Z,85
2023-01-30T10:43:29.414Z,84
2023-01-30T10:46:54.754Z,86
2023-01-30T10:50:20.728Z,87
2023-01-30T10:53:45.546Z,87
2023-01-30T10:57:10.760Z,88
2023-01-30T11:00:36.007Z,89
2023-01-30T11:04:01.263Z,89
2023-01-30T11:07:26.524Z,89
2023-01-30T11:10:51.801Z,88
2023-01-30T11:14:17.080Z,89
2023-01-30T11:17:42.344Z,89
2023-01-30T11:21:07.611Z,90
2023-01-30T11:24:36.346Z,90
2023-01-30T11:28:01.692Z,90
2023-01-30T11:31:40.238Z,91
2023-01-30T11:34:52.135Z,91
2023-01-30T11:38:17.379Z,91
2023-01-30T11:41:42.627Z,91
2023-01-30T11:45:16.999Z,91
2023-01-30T11:49:01.683Z,90
2023-01-30T11:51:58.434Z,91
2023-01-30T11:55:23.667Z,91
2023-01-30T11:58:48.898Z,91
2023-01-30T12:02:14.225Z,91
2023-01-30T12:05:39.455Z,91
2023-01-30T12:09:04.746Z,91
2023-01-30T12:12:29.998Z,91
2023-01-30T12:15:55.238Z,90
2023-01-30T12:19:20.512Z,90
2023-01-30T12:22:45.745Z,90
2023-01-30T12:26:10.999Z,91
2023-01-30T12:29:36.288Z,91
2023-01-30T12:33:04.078Z,91
2023-01-30T12:36:29.527Z,91
2023-01-30T12:39:54.555Z,91
2023-01-30T12:43:19.829Z,90
2023-01-30T12:46:45.398Z,90
2023-01-30T12:50:10.736Z,91
2023-01-30T12:53:36.001Z,90
2023-01-30T12:57:01.251Z,90
2023-01-30T13:00:26.544Z,88
2023-01-30T13:03:51.818Z,87
2023-01-30T13:07:17.131Z,87
2023-01-30T13:10:42.393Z,87
2023-01-30T13:14:07.659Z,87
2023-01-30T13:17:32.957Z,86
2023-01-30T13:21:00.549Z,86
2023-01-30T13:24:24.907Z,86
2023-01-30T13:27:50.215Z,87
2023-01-30T13:31:15.551Z,86
2023-01-30T13:34:40.684Z,87
2023-01-30T13:38:05.973Z,88
2023-01-30T13:41:31.227Z,87
2023-01-30T13:44:56.518Z,88
2023-01-30T13:48:21.759Z,88
2023-01-30T13:51:47.130Z,88
2023-01-30T13:55:12.452Z,88
2023-01-30T13:58:37.616Z,87
2023-01-30T14:02:02.931Z,87
2023-01-30T14:05:34.686Z,87
2023-01-30T14:08:53.555Z,87
2023-01-30T14:12:18.851Z,87
2023-01-30T14:15:44.221Z,86
2023-01-30T14:19:09.427Z,86
2023-01-30T14:22:34.696Z,87
2023-01-30T14:25:59.999Z,87
2023-01-30T14:29:25.270Z,87
2023-01-30T15:05:24.628Z,87
2023-01-30T15:08:49.846Z,86
2023-01-30T15:12:15.117Z,86
2023-01-30T15:15:40.364Z,87
2023-01-30T15:19:05.603Z,87
2023-01-30T15:22:30.930Z,86
2023-01-30T15:25:56.149Z,86
2023-01-30T15:29:21.422Z,87
2023-01-30T15:32:47.385Z,87
2023-01-30T15:36:12.608Z,87
2023-01-30T15:39:37.907Z,86
2023-01-30T15:43:03.127Z,86
2023-01-30T15:46:28.421Z,85
2023-01-30T15:49:53.600Z,85
2023-01-30T15:53:18.896Z,84
2023-01-30T15:56:44.168Z,84
2023-01-30T16:00:09.387Z,84
2023-01-30T16:03:34.704Z,85
2023-01-30T16:07:00.518Z,85
2023-01-30T16:10:25.823Z,85
2023-01-30T16:13:51.133Z,85
2023-01-30T16:17:17.036Z,85
2023-01-30T16:20:48.653Z,85
2023-01-30T16:24:07.585Z,86
2023-01-30T16:27:32.862Z,85
2023-01-30T16:30:58.288Z,85
2023-01-30T16:34:23.426Z,85
2023-01-30T16:37:48.705Z,85
2023-01-30T16:41:13.939Z,85
2023-01-30T16:44:39.259Z,85
2023-01-30T16:48:05.981Z,85
2023-01-30T16:51:29.752Z,85
2023-01-30T16:54:54.992Z,85
2023-01-30T16:58:20.239Z,85
2023-01-30T17:01:46.067Z,85
2023-01-30T17:05:15.123Z,85
2023-01-30T17:08:40.313Z,84
2023-01-30T17:12:05.601Z,84
2023-01-30T17:15:30.852Z,85
2023-01-30T17:18:56.145Z,84
2023-01-30T17:22:21.494Z,84
2023-01-30T17:25:46.740Z,84
2023-01-30T17:29:17.028Z,82
2023-01-30T17:32:37.297Z,82
2023-01-30T17:36:02.558Z,82
2023-01-30T17:39:29.112Z,82
2023-01-30T17:42:54.347Z,82
2023-01-30T17:46:19.665Z,83
2023-01-30T17:49:45.030Z,83
2023-01-30T17:53:10.360Z,83
2023-01-30T17:56:36.983Z,83
2023-01-30T18:00:01.020Z,83
2023-01-30T18:03:26.317Z,83
2023-01-30T18:06:51.609Z,83
2023-01-30T18:10:17.166Z,83
2023-01-30T18:13:42.347Z,83
2023-01-30T18:17:07.497Z,83
2023-01-30T18:20:32.732Z,84
2023-01-30T18:23:58.047Z,83
2023-01-30T18:27:23.324Z,82
2023-01-30T18:30:48.772Z,83
2023-01-30T18:34:13.964Z,82
2023-01-30T18:37:39.335Z,82
2023-01-30T18:41:04.627Z,82
2023-01-30T18:44:29.925Z,82
2023-01-30T18:47:55.273Z,82
2023-01-30T18:51:20.594Z,82
2023-01-30T18:54:45.849Z,82
2023-01-30T18:58:11.125Z,82
2023-01-30T19:01:36.387Z,82
2023-01-30T19:05:01.726Z,82
2023-01-30T19:08:27.103Z,82
2023-01-30T19:11:52.425Z,82
2023-01-30T19:15:17.695Z,82
2023-01-30T19:18:42.965Z,82
2023-01-30T19:22:08.325Z,82
2023-01-30T19:25:33.614Z,83
2023-01-30T19:28:58.901Z,82
2023-01-30T19:32:24.190Z,83
2023-01-30T19:35:49.505Z,83
2023-01-30T19:39:14.914Z,83
2023-01-30T19:42:42.449Z,83
2023-01-30T19:46:05.548Z,83
2023-01-30T19:49:30.821Z,83
2023-01-30T19:52:56.093Z,83
2023-01-30T19:56:21.389Z,84
2023-01-30T19:59:46.630Z,83
2023-01-30T20:03:11.934Z,83
2023-01-30T20:06:37.220Z,84
2023-01-30T20:10:02.532Z,83
2023-01-30T20:13:27.923Z,83
2023-01-30T20:16:53.149Z,83
2023-01-30T20:20:18.667Z,83
2023-01-30T20:23:43.678Z,83
2023-01-30T20:27:08.954Z,83
2023-01-30T20:30:34.270Z,84
2023-01-30T20:33:59.556Z,84
2023-01-30T20:37:24.830Z,84
2023-01-30T20:40:50.088Z,85
2023-01-30T20:44:15.382Z,84
2023-01-30T20:47:40.772Z,85
2023-01-30T20:51:06.068Z,85
2023-01-30T20:54:31.443Z,85
2023-01-30T20:57:56.721Z,85
2023-01-30T21:01:22.122Z,85
2023-01-30T21:04:47.401Z,85
2023-01-30T21:08:12.730Z,85
2023-01-30T21:11:38.181Z,85
2023-01-30T21:15:03.259Z,86
2023-01-30T21:18:29.187Z,85
2023-01-30T21:21:54.611Z,86
2023-01-30T21:25:20.231Z,86
2023-01-30T21:28:45.119Z,86
2023-01-30T21:32:10.401Z,87
2023-01-30T21:35:35.663Z,86
2023-01-30T21:39:00.954Z,86
2023-01-30T21:42:26.202Z,86
2023-01-30T21:45:51.533Z,86
2023-01-30T21:49:16.755Z,86
2023-01-30T21:52:42.003Z,86
2023-01-30T21:56:07.304Z,84
2023-01-30T21:59:32.562Z,84
2023-01-30T22:02:57.931Z,85
2023-01-30T22:06:23.227Z,85
2023-01-30T22:09:48.598Z,85
2023-01-30T22:13:13.977Z,84
2023-01-30T22:16:39.707Z,84
2023-01-30T22:20:04.539Z,84
2023-01-30T22:23:29.782Z,83
2023-01-30T22:26:55.055Z,83
2023-01-30T22:30:20.459Z,83
2023-01-30T22:33:45.797Z,83
2023-01-30T22:37:11.206Z,83
2023-01-30T22:40:36.501Z,83
2023-01-30T22:44:01.804Z,83
2023-01-30T22:47:27.139Z,82
2023-01-30T22:50:52.437Z,82
2023-01-30T22:54:17.692Z,83
2023-01-30T22:57:42.973Z,83
2023-01-30T23:01:08.316Z,82
2023-01-30T23:04:33.705Z,83
2023-01-30T23:07:58.970Z,82
2023-01-30T23:11:24.262Z,83
2023-01-30T23:14:49.613Z,83
2023-01-30T23:18:14.983Z,83
2023-01-30T23:21:40.401Z,85
2023-01-30T23:25:05.581Z,86
2023-01-30T23:28:30.883Z,87
2023-01-30T23:31:56.283Z,87
2023-01-30T23:35:21.840Z,86
2023-01-30T23:38:46.961Z,86
2023-01-30T23:42:12.226Z,87
2023-01-30T23:45:37.655Z,86
2023-01-30T23:49:02.906Z,85
2023-01-30T23:52:28.188Z,86
2023-01-30T23:55:53.492Z,85
2023-01-30T23:59:18.845Z,85
